sensor_id;sensor_type;location;lat;lon;timestamp;P1;durP1;ratioP1;P2;durP2;ratioP2
75071;SDS011;63651;55.728;38.022;2023-08-21T00:02:05;3.63;;;3.33;;
75071;SDS011;63651;55.728;38.022;2023-08-21T00:07:06;4.03;;;3.05;;
75071;SDS011;63651;55.728;38.022;2023-08-21T00:12:09;4.07;;;3.38;;
75071;SDS011;63651;55.728;38.022;2023-08-21T00:17:10;3.33;;;2.72;;
75071;SDS011;63651;55.728;38.022;2023-08-21T00:22:11;3.65;;;3.35;;
75071;SDS011;63651;55.728;38.022;2023-08-21T00:27:12;3.50;;;3.20;;
75071;SDS011;63651;55.728;38.022;2023-08-21T00:32:13;3.63;;;3.33;;
75071;SDS011;63651;55.728;38.022;2023-08-21T00:37:14;3.80;;;2.97;;
75071;SDS011;63651;55.728;38.022;2023-08-21T00:42:15;3.78;;;3.47;;
75071;SDS011;63651;55.728;38.022;2023-08-21T00:47:16;4.57;;;3.53;;
75071;SDS011;63651;55.728;38.022;2023-08-21T00:52:18;4.63;;;3.22;;
75071;SDS011;63651;55.728;38.022;2023-08-21T00:57:19;3.97;;;3.63;;
75071;SDS011;63651;55.728;38.022;2023-08-21T01:02:20;3.15;;;2.88;;
75071;SDS011;63651;55.728;38.022;2023-08-21T01:07:22;3.90;;;3.50;;
75071;SDS011;63651;55.728;38.022;2023-08-21T01:12:30;4.75;;;3.80;;
75071;SDS011;63651;55.728;38.022;2023-08-21T01:17:37;4.00;;;3.60;;
75071;SDS011;63651;55.728;38.022;2023-08-21T01:22:40;3.95;;;3.42;;
75071;SDS011;63651;55.728;38.022;2023-08-21T01:27:47;4.35;;;3.95;;
75071;SDS011;63651;55.728;38.022;2023-08-21T01:38:11;3.65;;;3.35;;
75071;SDS011;63651;55.728;38.022;2023-08-21T01:43:12;3.85;;;3.40;;
75071;SDS011;63651;55.728;38.022;2023-08-21T01:48:13;7.07;;;3.50;;
75071;SDS011;63651;55.728;38.022;2023-08-21T01:53:14;3.65;;;3.20;;
75071;SDS011;63651;55.728;38.022;2023-08-21T01:58:16;3.67;;;3.35;;
75071;SDS011;63651;55.728;38.022;2023-08-21T02:03:17;4.00;;;3.00;;
75071;SDS011;63651;55.728;38.022;2023-08-21T02:08:18;3.70;;;3.17;;
75071;SDS011;63651;55.728;38.022;2023-08-21T02:13:19;3.22;;;2.95;;
75071;SDS011;63651;55.728;38.022;2023-08-21T02:18:20;3.70;;;3.25;;
75071;SDS011;63651;55.728;38.022;2023-08-21T02:23:21;4.55;;;3.35;;
75071;SDS011;63651;55.728;38.022;2023-08-21T02:28:24;3.63;;;3.33;;
75071;SDS011;63651;55.728;38.022;2023-08-21T02:33:25;4.07;;;3.67;;
75071;SDS011;63651;55.728;38.022;2023-08-21T02:38:26;4.20;;;3.20;;
75071;SDS011;63651;55.728;38.022;2023-08-21T02:43:27;3.25;;;2.95;;
75071;SDS011;63651;55.728;38.022;2023-08-21T02:48:28;3.30;;;2.90;;
75071;SDS011;63651;55.728;38.022;2023-08-21T02:53:29;4.07;;;2.78;;
75071;SDS011;63651;55.728;38.022;2023-08-21T02:58:30;3.28;;;2.40;;
75071;SDS011;63651;55.728;38.022;2023-08-21T03:03:31;4.15;;;3.45;;
75071;SDS011;63651;55.728;38.022;2023-08-21T03:08:34;3.28;;;2.95;;
75071;SDS011;63651;55.728;38.022;2023-08-21T03:13:35;4.72;;;2.90;;
75071;SDS011;63651;55.728;38.022;2023-08-21T03:18:53;4.57;;;3.20;;
75071;SDS011;63651;55.728;38.022;2023-08-21T03:23:58;3.00;;;2.80;;
75071;SDS011;63651;55.728;38.022;2023-08-21T03:29:00;4.50;;;3.05;;
75071;SDS011;63651;55.728;38.022;2023-08-21T03:34:01;3.70;;;2.80;;
75071;SDS011;63651;55.728;38.022;2023-08-21T03:39:02;3.13;;;2.80;;
75071;SDS011;63651;55.728;38.022;2023-08-21T03:44:07;3.28;;;2.88;;
75071;SDS011;63651;55.728;38.022;2023-08-21T03:49:08;4.07;;;2.88;;
75071;SDS011;63651;55.728;38.022;2023-08-21T03:54:09;3.13;;;2.30;;
75071;SDS011;63651;55.728;38.022;2023-08-21T03:59:10;3.83;;;2.60;;
75071;SDS011;63651;55.728;38.022;2023-08-21T04:04:11;2.85;;;2.10;;
75071;SDS011;63651;55.728;38.022;2023-08-21T04:09:12;11.18;;;4.55;;
75071;SDS011;63651;55.728;38.022;2023-08-21T04:14:13;12.48;;;5.15;;
75071;SDS011;63651;55.728;38.022;2023-08-21T04:19:14;11.63;;;5.10;;
75071;SDS011;63651;55.728;38.022;2023-08-21T04:24:15;13.88;;;4.65;;
75071;SDS011;63651;55.728;38.022;2023-08-21T04:29:16;11.35;;;4.80;;
75071;SDS011;63651;55.728;38.022;2023-08-21T04:34:17;10.45;;;4.50;;
75071;SDS011;63651;55.728;38.022;2023-08-21T04:39:18;7.75;;;3.80;;
75071;SDS011;63651;55.728;38.022;2023-08-21T04:44:19;5.70;;;3.05;;
75071;SDS011;63651;55.728;38.022;2023-08-21T04:49:20;7.03;;;2.88;;
75071;SDS011;63651;55.728;38.022;2023-08-21T04:54:21;3.03;;;2.40;;
75071;SDS011;63651;55.728;38.022;2023-08-21T04:59:22;3.85;;;2.45;;
75071;SDS011;63651;55.728;38.022;2023-08-21T05:04:23;4.20;;;2.45;;
75071;SDS011;63651;55.728;38.022;2023-08-21T05:09:24;3.08;;;2.53;;
75071;SDS011;63651;55.728;38.022;2023-08-21T05:14:25;3.67;;;2.20;;
75071;SDS011;63651;55.728;38.022;2023-08-21T05:19:26;2.53;;;2.22;;
75071;SDS011;63651;55.728;38.022;2023-08-21T05:24:27;2.20;;;1.80;;
75071;SDS011;63651;55.728;38.022;2023-08-21T05:29:30;2.67;;;1.92;;
75071;SDS011;63651;55.728;38.022;2023-08-21T05:34:32;2.38;;;1.90;;
75071;SDS011;63651;55.728;38.022;2023-08-21T05:39:33;2.03;;;1.85;;
75071;SDS011;63651;55.728;38.022;2023-08-21T05:44:34;2.88;;;1.63;;
75071;SDS011;63651;55.728;38.022;2023-08-21T05:49:35;4.03;;;1.60;;
75071;SDS011;63651;55.728;38.022;2023-08-21T05:54:36;4.85;;;2.05;;
75071;SDS011;63651;55.728;38.022;2023-08-21T05:59:42;2.53;;;1.60;;
75071;SDS011;63651;55.728;38.022;2023-08-21T06:04:47;3.13;;;1.80;;
75071;SDS011;63651;55.728;38.022;2023-08-21T06:09:48;2.15;;;1.67;;
75071;SDS011;63651;55.728;38.022;2023-08-21T06:14:49;2.58;;;1.60;;
75071;SDS011;63651;55.728;38.022;2023-08-21T06:19:51;1.88;;;1.42;;
75071;SDS011;63651;55.728;38.022;2023-08-21T06:24:52;1.98;;;1.75;;
75071;SDS011;63651;55.728;38.022;2023-08-21T06:29:53;1.60;;;1.42;;
75071;SDS011;63651;55.728;38.022;2023-08-21T06:34:54;1.65;;;1.48;;
75071;SDS011;63651;55.728;38.022;2023-08-21T06:39:55;1.67;;;1.30;;
75071;SDS011;63651;55.728;38.022;2023-08-21T06:44:56;1.58;;;1.40;;
75071;SDS011;63651;55.728;38.022;2023-08-21T06:49:57;2.20;;;1.42;;
75071;SDS011;63651;55.728;38.022;2023-08-21T06:55:00;2.33;;;1.58;;
75071;SDS011;63651;55.728;38.022;2023-08-21T07:00:06;2.45;;;1.38;;
75071;SDS011;63651;55.728;38.022;2023-08-21T07:05:14;1.52;;;1.40;;
75071;SDS011;63651;55.728;38.022;2023-08-21T07:10:16;1.60;;;1.38;;
75071;SDS011;63651;55.728;38.022;2023-08-21T07:21:11;1.30;;;1.17;;
75071;SDS011;63651;55.728;38.022;2023-08-21T07:26:12;1.50;;;1.30;;
75071;SDS011;63651;55.728;38.022;2023-08-21T07:31:14;2.03;;;1.08;;
75071;SDS011;63651;55.728;38.022;2023-08-21T07:36:15;1.20;;;1.00;;
75071;SDS011;63651;55.728;38.022;2023-08-21T07:41:19;1.83;;;1.50;;
75071;SDS011;63651;55.728;38.022;2023-08-21T07:46:20;1.60;;;1.10;;
75071;SDS011;63651;55.728;38.022;2023-08-21T07:51:22;1.10;;;0.98;;
75071;SDS011;63651;55.728;38.022;2023-08-21T07:56:23;1.23;;;0.98;;
75071;SDS011;63651;55.728;38.022;2023-08-21T08:01:24;1.33;;;1.23;;
75071;SDS011;63651;55.728;38.022;2023-08-21T08:06:25;1.95;;;1.33;;
75071;SDS011;63651;55.728;38.022;2023-08-21T08:11:26;1.33;;;0.70;;
75071;SDS011;63651;55.728;38.022;2023-08-21T08:16:27;1.33;;;1.10;;
75071;SDS011;63651;55.728;38.022;2023-08-21T08:21:28;1.40;;;1.00;;
75071;SDS011;63651;55.728;38.022;2023-08-21T08:26:29;2.50;;;1.40;;
75071;SDS011;63651;55.728;38.022;2023-08-21T08:31:30;1.70;;;1.10;;
75071;SDS011;63651;55.728;38.022;2023-08-21T08:36:31;2.75;;;1.40;;
75071;SDS011;63651;55.728;38.022;2023-08-21T08:41:33;1.60;;;1.15;;
75071;SDS011;63651;55.728;38.022;2023-08-21T08:46:43;1.30;;;0.90;;
75071;SDS011;63651;55.728;38.022;2023-08-21T08:51:44;1.50;;;1.10;;
75071;SDS011;63651;55.728;38.022;2023-08-21T08:56:47;1.52;;;1.20;;
75071;SDS011;63651;55.728;38.022;2023-08-21T09:01:51;1.23;;;1.10;;
75071;SDS011;63651;55.728;38.022;2023-08-21T09:06:52;1.92;;;1.52;;
75071;SDS011;63651;55.728;38.022;2023-08-21T09:12:13;1.55;;;1.40;;
75071;SDS011;63651;55.728;38.022;2023-08-21T09:17:15;1.20;;;1.10;;
75071;SDS011;63651;55.728;38.022;2023-08-21T09:22:17;1.70;;;1.30;;
75071;SDS011;63651;55.728;38.022;2023-08-21T09:27:19;1.50;;;1.35;;
75071;SDS011;63651;55.728;38.022;2023-08-21T09:32:20;1.40;;;1.30;;
75071;SDS011;63651;55.728;38.022;2023-08-21T09:37:21;1.45;;;1.30;;
75071;SDS011;63651;55.728;38.022;2023-08-21T09:42:30;1.73;;;1.00;;
75071;SDS011;63651;55.728;38.022;2023-08-21T09:47:31;2.35;;;1.10;;
75071;SDS011;63651;55.728;38.022;2023-08-21T09:52:34;1.77;;;1.33;;
75071;SDS011;63651;55.728;38.022;2023-08-21T09:57:36;2.42;;;1.50;;
75071;SDS011;63651;55.728;38.022;2023-08-21T10:02:37;1.38;;;1.27;;
75071;SDS011;63651;55.728;38.022;2023-08-21T10:07:39;1.42;;;1.17;;
75071;SDS011;63651;55.728;38.022;2023-08-21T10:12:43;1.30;;;1.20;;
75071;SDS011;63651;55.728;38.022;2023-08-21T10:17:44;1.30;;;1.20;;
75071;SDS011;63651;55.728;38.022;2023-08-21T10:22:45;1.90;;;1.30;;
75071;SDS011;63651;55.728;38.022;2023-08-21T10:27:52;1.13;;;0.88;;
75071;SDS011;63651;55.728;38.022;2023-08-21T10:32:57;2.05;;;1.10;;
75071;SDS011;63651;55.728;38.022;2023-08-21T10:48:40;2.10;;;1.00;;
75071;SDS011;63651;55.728;38.022;2023-08-21T10:53:41;1.60;;;1.05;;
75071;SDS011;63651;55.728;38.022;2023-08-21T10:58:44;1.35;;;1.00;;
75071;SDS011;63651;55.728;38.022;2023-08-21T11:03:51;1.30;;;1.20;;
75071;SDS011;63651;55.728;38.022;2023-08-21T11:08:52;2.47;;;0.98;;
75071;SDS011;63651;55.728;38.022;2023-08-21T11:13:53;1.52;;;1.38;;
75071;SDS011;63651;55.728;38.022;2023-08-21T11:18:55;2.25;;;0.90;;
75071;SDS011;63651;55.728;38.022;2023-08-21T11:23:56;1.10;;;0.73;;
75071;SDS011;63651;55.728;38.022;2023-08-21T11:28:57;1.77;;;1.25;;
75071;SDS011;63651;55.728;38.022;2023-08-21T11:34:01;2.08;;;0.70;;
75071;SDS011;63651;55.728;38.022;2023-08-21T11:39:02;2.00;;;0.93;;
75071;SDS011;63651;55.728;38.022;2023-08-21T11:44:08;1.67;;;1.58;;
75071;SDS011;63651;55.728;38.022;2023-08-21T11:49:10;1.48;;;1.00;;
75071;SDS011;63651;55.728;38.022;2023-08-21T11:54:11;1.10;;;1.00;;
75071;SDS011;63651;55.728;38.022;2023-08-21T11:59:20;1.50;;;0.90;;
75071;SDS011;63651;55.728;38.022;2023-08-21T12:04:23;1.42;;;1.08;;
75071;SDS011;63651;55.728;38.022;2023-08-21T12:09:25;1.10;;;1.00;;
75071;SDS011;63651;55.728;38.022;2023-08-21T12:14:27;1.90;;;1.27;;
75071;SDS011;63651;55.728;38.022;2023-08-21T12:19:29;1.65;;;1.40;;
75071;SDS011;63651;55.728;38.022;2023-08-21T12:24:30;1.75;;;1.00;;
75071;SDS011;63651;55.728;38.022;2023-08-21T12:29:32;1.30;;;0.93;;
75071;SDS011;63651;55.728;38.022;2023-08-21T12:34:33;1.20;;;1.00;;
75071;SDS011;63651;55.728;38.022;2023-08-21T12:39:34;1.33;;;1.20;;
75071;SDS011;63651;55.728;38.022;2023-08-21T12:44:35;1.25;;;1.15;;
75071;SDS011;63651;55.728;38.022;2023-08-21T12:49:36;1.23;;;1.13;;
75071;SDS011;63651;55.728;38.022;2023-08-21T12:54:40;1.30;;;1.00;;
75071;SDS011;63651;55.728;38.022;2023-08-21T12:59:42;1.95;;;1.10;;
75071;SDS011;63651;55.728;38.022;2023-08-21T13:04:43;1.75;;;1.02;;
75071;SDS011;63651;55.728;38.022;2023-08-21T13:09:44;1.55;;;0.93;;
75071;SDS011;63651;55.728;38.022;2023-08-21T13:14:45;1.52;;;1.38;;
75071;SDS011;63651;55.728;38.022;2023-08-21T13:19:48;1.20;;;0.95;;
75071;SDS011;63651;55.728;38.022;2023-08-21T13:24:49;1.40;;;1.30;;
75071;SDS011;63651;55.728;38.022;2023-08-21T13:29:51;2.00;;;1.20;;
75071;SDS011;63651;55.728;38.022;2023-08-21T13:34:52;3.00;;;1.40;;
75071;SDS011;63651;55.728;38.022;2023-08-21T13:39:53;1.50;;;1.13;;
75071;SDS011;63651;55.728;38.022;2023-08-21T13:44:55;1.95;;;1.23;;
75071;SDS011;63651;55.728;38.022;2023-08-21T13:49:57;2.78;;;1.00;;
75071;SDS011;63651;55.728;38.022;2023-08-21T13:54:58;2.03;;;1.00;;
75071;SDS011;63651;55.728;38.022;2023-08-21T14:00:00;2.80;;;1.30;;
75071;SDS011;63651;55.728;38.022;2023-08-21T14:05:02;1.75;;;0.80;;
75071;SDS011;63651;55.728;38.022;2023-08-21T14:10:08;1.35;;;1.00;;
75071;SDS011;63651;55.728;38.022;2023-08-21T14:15:09;1.08;;;0.80;;
75071;SDS011;63651;55.728;38.022;2023-08-21T14:20:11;1.67;;;1.10;;
75071;SDS011;63651;55.728;38.022;2023-08-21T14:25:13;2.63;;;1.10;;
75071;SDS011;63651;55.728;38.022;2023-08-21T14:30:16;2.47;;;1.10;;
75071;SDS011;63651;55.728;38.022;2023-08-21T14:35:17;1.67;;;1.13;;
75071;SDS011;63651;55.728;38.022;2023-08-21T14:40:18;2.22;;;1.42;;
75071;SDS011;63651;55.728;38.022;2023-08-21T14:45:19;2.03;;;1.45;;
75071;SDS011;63651;55.728;38.022;2023-08-21T14:50:20;3.80;;;1.40;;
75071;SDS011;63651;55.728;38.022;2023-08-21T14:55:21;2.10;;;1.20;;
75071;SDS011;63651;55.728;38.022;2023-08-21T15:00:22;2.75;;;1.30;;
75071;SDS011;63651;55.728;38.022;2023-08-21T15:05:24;1.85;;;1.30;;
75071;SDS011;63651;55.728;38.022;2023-08-21T15:10:25;2.03;;;1.38;;
75071;SDS011;63651;55.728;38.022;2023-08-21T15:15:26;1.90;;;1.30;;
75071;SDS011;63651;55.728;38.022;2023-08-21T15:20:27;2.50;;;1.35;;
75071;SDS011;63651;55.728;38.022;2023-08-21T15:25:28;3.70;;;1.60;;
75071;SDS011;63651;55.728;38.022;2023-08-21T15:30:29;6.47;;;1.55;;
75071;SDS011;63651;55.728;38.022;2023-08-21T15:35:30;2.05;;;1.23;;
75071;SDS011;63651;55.728;38.022;2023-08-21T15:40:32;7.25;;;1.67;;
75071;SDS011;63651;55.728;38.022;2023-08-21T15:45:33;6.65;;;2.10;;
75071;SDS011;63651;55.728;38.022;2023-08-21T15:50:34;3.45;;;2.00;;
75071;SDS011;63651;55.728;38.022;2023-08-21T15:55:35;2.90;;;1.90;;
75071;SDS011;63651;55.728;38.022;2023-08-21T16:00:36;2.72;;;1.33;;
75071;SDS011;63651;55.728;38.022;2023-08-21T16:05:37;3.78;;;2.33;;
75071;SDS011;63651;55.728;38.022;2023-08-21T16:10:38;3.53;;;1.98;;
75071;SDS011;63651;55.728;38.022;2023-08-21T16:15:39;2.08;;;1.70;;
75071;SDS011;63651;55.728;38.022;2023-08-21T16:20:41;2.72;;;1.58;;
75071;SDS011;63651;55.728;38.022;2023-08-21T16:25:42;2.08;;;1.52;;
75071;SDS011;63651;55.728;38.022;2023-08-21T16:30:43;1.70;;;1.27;;
75071;SDS011;63651;55.728;38.022;2023-08-21T16:35:44;2.50;;;1.50;;
75071;SDS011;63651;55.728;38.022;2023-08-21T16:40:45;2.63;;;1.50;;
75071;SDS011;63651;55.728;38.022;2023-08-21T16:45:47;2.22;;;1.60;;
75071;SDS011;63651;55.728;38.022;2023-08-21T16:50:48;1.67;;;1.52;;
75071;SDS011;63651;55.728;38.022;2023-08-21T16:55:49;2.70;;;1.70;;
75071;SDS011;63651;55.728;38.022;2023-08-21T17:00:51;2.38;;;1.75;;
75071;SDS011;63651;55.728;38.022;2023-08-21T17:05:54;2.80;;;1.80;;
75071;SDS011;63651;55.728;38.022;2023-08-21T17:10:55;2.10;;;1.80;;
75071;SDS011;63651;55.728;38.022;2023-08-21T17:15:56;3.70;;;1.67;;
75071;SDS011;63651;55.728;38.022;2023-08-21T17:20:58;3.80;;;2.05;;
75071;SDS011;63651;55.728;38.022;2023-08-21T17:25:59;2.90;;;1.65;;
75071;SDS011;63651;55.728;38.022;2023-08-21T17:31:00;2.17;;;1.80;;
75071;SDS011;63651;55.728;38.022;2023-08-21T17:36:01;3.95;;;1.73;;
75071;SDS011;63651;55.728;38.022;2023-08-21T17:41:03;5.13;;;2.30;;
75071;SDS011;63651;55.728;38.022;2023-08-21T17:46:07;3.25;;;2.10;;
75071;SDS011;63651;55.728;38.022;2023-08-21T17:51:08;4.68;;;2.15;;
75071;SDS011;63651;55.728;38.022;2023-08-21T17:56:09;3.22;;;2.10;;
75071;SDS011;63651;55.728;38.022;2023-08-21T18:01:12;2.60;;;2.22;;
75071;SDS011;63651;55.728;38.022;2023-08-21T18:06:14;3.30;;;2.30;;
75071;SDS011;63651;55.728;38.022;2023-08-21T18:11:15;2.83;;;2.20;;
75071;SDS011;63651;55.728;38.022;2023-08-21T18:16:17;3.92;;;2.22;;
75071;SDS011;63651;55.728;38.022;2023-08-21T18:21:20;4.25;;;2.47;;
75071;SDS011;63651;55.728;38.022;2023-08-21T18:26:21;3.92;;;2.10;;
75071;SDS011;63651;55.728;38.022;2023-08-21T18:31:22;4.72;;;2.47;;
75071;SDS011;63651;55.728;38.022;2023-08-21T18:36:23;2.70;;;2.13;;
75071;SDS011;63651;55.728;38.022;2023-08-21T18:41:27;5.25;;;2.40;;
75071;SDS011;63651;55.728;38.022;2023-08-21T18:46:29;4.45;;;2.45;;
75071;SDS011;63651;55.728;38.022;2023-08-21T18:51:30;2.92;;;2.40;;
75071;SDS011;63651;55.728;38.022;2023-08-21T18:56:31;3.67;;;2.47;;
75071;SDS011;63651;55.728;38.022;2023-08-21T19:01:33;5.00;;;2.88;;
75071;SDS011;63651;55.728;38.022;2023-08-21T19:06:34;8.13;;;3.33;;
75071;SDS011;63651;55.728;38.022;2023-08-21T19:11:35;4.47;;;3.20;;
75071;SDS011;63651;55.728;38.022;2023-08-21T19:16:36;4.15;;;2.33;;
75071;SDS011;63651;55.728;38.022;2023-08-21T19:21:37;4.95;;;3.53;;
75071;SDS011;63651;55.728;38.022;2023-08-21T19:26:39;4.28;;;3.05;;
75071;SDS011;63651;55.728;38.022;2023-08-21T19:31:40;4.20;;;3.10;;
75071;SDS011;63651;55.728;38.022;2023-08-21T19:36:41;4.13;;;2.78;;
75071;SDS011;63651;55.728;38.022;2023-08-21T19:41:42;4.97;;;3.33;;
75071;SDS011;63651;55.728;38.022;2023-08-21T19:46:43;6.35;;;2.75;;
75071;SDS011;63651;55.728;38.022;2023-08-21T19:51:45;4.10;;;3.42;;
75071;SDS011;63651;55.728;38.022;2023-08-21T19:56:46;4.35;;;2.90;;
75071;SDS011;63651;55.728;38.022;2023-08-21T20:01:49;4.80;;;2.85;;
75071;SDS011;63651;55.728;38.022;2023-08-21T20:06:51;6.35;;;3.28;;
75071;SDS011;63651;55.728;38.022;2023-08-21T20:11:52;5.63;;;3.25;;
75071;SDS011;63651;55.728;38.022;2023-08-21T20:16:53;4.95;;;3.05;;
75071;SDS011;63651;55.728;38.022;2023-08-21T20:21:54;4.10;;;2.90;;
75071;SDS011;63651;55.728;38.022;2023-08-21T20:26:55;5.15;;;2.75;;
75071;SDS011;63651;55.728;38.022;2023-08-21T20:31:57;4.00;;;2.47;;
75071;SDS011;63651;55.728;38.022;2023-08-21T20:36:58;4.28;;;3.08;;
75071;SDS011;63651;55.728;38.022;2023-08-21T20:41:59;4.28;;;3.47;;
75071;SDS011;63651;55.728;38.022;2023-08-21T20:47:00;6.13;;;4.00;;
75071;SDS011;63651;55.728;38.022;2023-08-21T20:52:02;5.07;;;2.85;;
75071;SDS011;63651;55.728;38.022;2023-08-21T20:57:04;6.35;;;5.05;;
75071;SDS011;63651;55.728;38.022;2023-08-21T21:02:05;5.43;;;4.50;;
75071;SDS011;63651;55.728;38.022;2023-08-21T21:07:06;9.45;;;5.97;;
75071;SDS011;63651;55.728;38.022;2023-08-21T21:12:07;5.55;;;4.85;;
75071;SDS011;63651;55.728;38.022;2023-08-21T21:17:09;6.88;;;4.88;;
75071;SDS011;63651;55.728;38.022;2023-08-21T21:22:10;10.05;;;6.22;;
75071;SDS011;63651;55.728;38.022;2023-08-21T21:27:11;7.05;;;5.35;;
75071;SDS011;63651;55.728;38.022;2023-08-21T21:32:12;6.43;;;4.75;;
75071;SDS011;63651;55.728;38.022;2023-08-21T21:37:15;7.88;;;5.88;;
75071;SDS011;63651;55.728;38.022;2023-08-21T21:42:17;11.43;;;7.20;;
75071;SDS011;63651;55.728;38.022;2023-08-21T21:47:19;11.45;;;9.38;;
75071;SDS011;63651;55.728;38.022;2023-08-21T21:52:20;13.13;;;11.13;;
75071;SDS011;63651;55.728;38.022;2023-08-21T21:57:21;15.88;;;10.70;;
75071;SDS011;63651;55.728;38.022;2023-08-21T22:02:24;14.40;;;8.88;;
75071;SDS011;63651;55.728;38.022;2023-08-21T22:07:25;10.48;;;7.72;;
75071;SDS011;63651;55.728;38.022;2023-08-21T22:12:26;11.48;;;9.10;;
75071;SDS011;63651;55.728;38.022;2023-08-21T22:17:27;13.05;;;7.93;;
75071;SDS011;63651;55.728;38.022;2023-08-21T22:22:28;11.88;;;8.38;;
75071;SDS011;63651;55.728;38.022;2023-08-21T22:27:29;11.65;;;6.97;;
75071;SDS011;63651;55.728;38.022;2023-08-21T22:32:30;9.18;;;6.40;;
75071;SDS011;63651;55.728;38.022;2023-08-21T22:37:31;9.85;;;6.57;;
75071;SDS011;63651;55.728;38.022;2023-08-21T22:42:32;10.20;;;6.80;;
75071;SDS011;63651;55.728;38.022;2023-08-21T22:47:34;8.38;;;6.65;;
75071;SDS011;63651;55.728;38.022;2023-08-21T22:52:35;11.98;;;6.65;;
75071;SDS011;63651;55.728;38.022;2023-08-21T22:57:36;11.32;;;7.10;;
75071;SDS011;63651;55.728;38.022;2023-08-21T23:02:37;8.13;;;6.22;;
75071;SDS011;63651;55.728;38.022;2023-08-21T23:07:38;10.77;;;6.47;;
75071;SDS011;63651;55.728;38.022;2023-08-21T23:12:39;10.55;;;6.20;;
75071;SDS011;63651;55.728;38.022;2023-08-21T23:17:40;10.57;;;7.07;;
75071;SDS011;63651;55.728;38.022;2023-08-21T23:22:41;10.23;;;7.40;;
75071;SDS011;63651;55.728;38.022;2023-08-21T23:27:42;11.65;;;7.70;;
75071;SDS011;63651;55.728;38.022;2023-08-21T23:32:43;13.50;;;9.57;;
75071;SDS011;63651;55.728;38.022;2023-08-21T23:37:44;15.52;;;8.45;;
75071;SDS011;63651;55.728;38.022;2023-08-21T23:42:45;13.07;;;8.45;;
75071;SDS011;63651;55.728;38.022;2023-08-21T23:47:46;10.38;;;8.38;;
75071;SDS011;63651;55.728;38.022;2023-08-21T23:52:47;14.95;;;10.05;;
75071;SDS011;63651;55.728;38.022;2023-08-21T23:57:48;17.85;;;11.27;;
